sensor_id;sensor_type;location;lat;lon;timestamp;temperature;humidity
17843;DHT22;69286;48.222;16.332;2023-09-30T00:01:46;18.20;91.90
17843;DHT22;69286;48.222;16.332;2023-09-30T00:04:15;18.20;91.80
17843;DHT22;69286;48.222;16.332;2023-09-30T00:06:42;18.20;91.90
17843;DHT22;69286;48.222;16.332;2023-09-30T00:09:09;18.20;92.00
17843;DHT22;69286;48.222;16.332;2023-09-30T00:11:37;18.20;92.00
17843;DHT22;69286;48.222;16.332;2023-09-30T00:14:04;18.20;92.10
17843;DHT22;69286;48.222;16.332;2023-09-30T00:16:33;18.20;92.20
17843;DHT22;69286;48.222;16.332;2023-09-30T00:19:00;18.20;92.10
17843;DHT22;69286;48.222;16.332;2023-09-30T00:21:28;18.20;92.30
17843;DHT22;69286;48.222;16.332;2023-09-30T00:23:55;18.10;92.40
17843;DHT22;69286;48.222;16.332;2023-09-30T00:26:22;18.10;92.50
17843;DHT22;69286;48.222;16.332;2023-09-30T00:28:48;18.00;92.60
17843;DHT22;69286;48.222;16.332;2023-09-30T00:31:16;18.00;92.60
17843;DHT22;69286;48.222;16.332;2023-09-30T00:33:44;18.00;92.60
17843;DHT22;69286;48.222;16.332;2023-09-30T00:36:11;18.00;92.60
17843;DHT22;69286;48.222;16.332;2023-09-30T00:38:38;18.00;92.70
17843;DHT22;69286;48.222;16.332;2023-09-30T00:41:06;18.00;92.70
17843;DHT22;69286;48.222;16.332;2023-09-30T00:43:33;18.10;92.50
17843;DHT22;69286;48.222;16.332;2023-09-30T00:46:04;18.00;92.50
17843;DHT22;69286;48.222;16.332;2023-09-30T00:48:33;18.00;92.60
17843;DHT22;69286;48.222;16.332;2023-09-30T00:51:03;18.10;92.70
17843;DHT22;69286;48.222;16.332;2023-09-30T00:53:30;18.10;92.70
17843;DHT22;69286;48.222;16.332;2023-09-30T00:55:59;18.10;92.70
17843;DHT22;69286;48.222;16.332;2023-09-30T00:58:27;18.10;92.60
17843;DHT22;69286;48.222;16.332;2023-09-30T01:00:56;18.10;92.80
17843;DHT22;69286;48.222;16.332;2023-09-30T01:03:25;18.10;92.70
17843;DHT22;69286;48.222;16.332;2023-09-30T01:05:53;18.00;92.80
17843;DHT22;69286;48.222;16.332;2023-09-30T01:08:22;18.10;92.70
17843;DHT22;69286;48.222;16.332;2023-09-30T01:10:50;18.00;92.80
17843;DHT22;69286;48.222;16.332;2023-09-30T01:13:17;18.10;92.80
17843;DHT22;69286;48.222;16.332;2023-09-30T01:15:44;18.10;92.80
17843;DHT22;69286;48.222;16.332;2023-09-30T01:18:12;18.10;93.00
17843;DHT22;69286;48.222;16.332;2023-09-30T01:20:39;18.10;93.00
17843;DHT22;69286;48.222;16.332;2023-09-30T01:23:08;18.10;93.10
17843;DHT22;69286;48.222;16.332;2023-09-30T01:25:37;18.00;93.20
17843;DHT22;69286;48.222;16.332;2023-09-30T01:28:08;18.10;93.10
17843;DHT22;69286;48.222;16.332;2023-09-30T01:30:35;18.10;93.10
17843;DHT22;69286;48.222;16.332;2023-09-30T01:33:03;18.10;93.20
17843;DHT22;69286;48.222;16.332;2023-09-30T01:35:30;18.10;93.10
17843;DHT22;69286;48.222;16.332;2023-09-30T01:37:57;18.10;93.20
17843;DHT22;69286;48.222;16.332;2023-09-30T01:40:25;18.10;93.40
17843;DHT22;69286;48.222;16.332;2023-09-30T01:42:52;18.10;93.30
17843;DHT22;69286;48.222;16.332;2023-09-30T01:45:19;18.10;93.50
17843;DHT22;69286;48.222;16.332;2023-09-30T01:47:46;18.10;93.60
17843;DHT22;69286;48.222;16.332;2023-09-30T01:50:13;18.10;93.60
17843;DHT22;69286;48.222;16.332;2023-09-30T01:52:40;18.10;93.50
17843;DHT22;69286;48.222;16.332;2023-09-30T01:55:08;18.10;93.60
17843;DHT22;69286;48.222;16.332;2023-09-30T01:57:38;18.10;93.60
17843;DHT22;69286;48.222;16.332;2023-09-30T02:00:06;18.10;93.60
17843;DHT22;69286;48.222;16.332;2023-09-30T02:02:35;18.10;93.90
17843;DHT22;69286;48.222;16.332;2023-09-30T02:05:03;18.10;93.80
17843;DHT22;69286;48.222;16.332;2023-09-30T02:07:30;18.10;93.80
17843;DHT22;69286;48.222;16.332;2023-09-30T02:09:57;18.10;93.90
17843;DHT22;69286;48.222;16.332;2023-09-30T02:12:26;18.10;93.80
17843;DHT22;69286;48.222;16.332;2023-09-30T02:14:54;18.10;93.90
17843;DHT22;69286;48.222;16.332;2023-09-30T02:17:22;18.10;93.90
17843;DHT22;69286;48.222;16.332;2023-09-30T02:19:49;18.10;93.90
17843;DHT22;69286;48.222;16.332;2023-09-30T02:22:16;18.20;93.90
17843;DHT22;69286;48.222;16.332;2023-09-30T02:24:43;18.20;94.00
17843;DHT22;69286;48.222;16.332;2023-09-30T02:27:10;18.30;94.10
17843;DHT22;69286;48.222;16.332;2023-09-30T02:29:37;18.30;94.30
17843;DHT22;69286;48.222;16.332;2023-09-30T02:32:06;18.40;94.70
17843;DHT22;69286;48.222;16.332;2023-09-30T02:34:33;18.50;94.70
17843;DHT22;69286;48.222;16.332;2023-09-30T02:37:01;18.60;94.60
17843;DHT22;69286;48.222;16.332;2023-09-30T02:39:28;18.70;94.50
17843;DHT22;69286;48.222;16.332;2023-09-30T02:41:55;18.80;94.40
17843;DHT22;69286;48.222;16.332;2023-09-30T02:44:22;18.90;94.30
17843;DHT22;69286;48.222;16.332;2023-09-30T02:46:49;19.00;94.00
17843;DHT22;69286;48.222;16.332;2023-09-30T02:49:17;19.00;93.90
17843;DHT22;69286;48.222;16.332;2023-09-30T02:51:44;19.10;93.60
17843;DHT22;69286;48.222;16.332;2023-09-30T02:54:11;19.20;93.60
17843;DHT22;69286;48.222;16.332;2023-09-30T02:56:41;19.20;93.60
17843;DHT22;69286;48.222;16.332;2023-09-30T02:59:08;19.20;93.70
17843;DHT22;69286;48.222;16.332;2023-09-30T03:01:35;19.30;93.70
17843;DHT22;69286;48.222;16.332;2023-09-30T03:04:03;19.30;94.00
17843;DHT22;69286;48.222;16.332;2023-09-30T03:06:34;19.30;94.10
17843;DHT22;69286;48.222;16.332;2023-09-30T03:09:02;19.30;94.20
17843;DHT22;69286;48.222;16.332;2023-09-30T03:11:29;19.40;94.30
17843;DHT22;69286;48.222;16.332;2023-09-30T03:13:56;19.30;94.30
17843;DHT22;69286;48.222;16.332;2023-09-30T03:16:24;19.40;94.30
17843;DHT22;69286;48.222;16.332;2023-09-30T03:18:51;19.40;94.40
17843;DHT22;69286;48.222;16.332;2023-09-30T03:21:18;19.40;94.50
17843;DHT22;69286;48.222;16.332;2023-09-30T03:23:46;19.40;94.60
17843;DHT22;69286;48.222;16.332;2023-09-30T03:26:13;19.40;94.70
17843;DHT22;69286;48.222;16.332;2023-09-30T03:28:41;19.40;94.70
17843;DHT22;69286;48.222;16.332;2023-09-30T03:31:08;19.50;94.80
17843;DHT22;69286;48.222;16.332;2023-09-30T03:33:37;19.50;94.80
17843;DHT22;69286;48.222;16.332;2023-09-30T03:36:07;19.50;95.00
17843;DHT22;69286;48.222;16.332;2023-09-30T03:38:34;19.50;95.10
17843;DHT22;69286;48.222;16.332;2023-09-30T03:41:03;19.50;95.20
17843;DHT22;69286;48.222;16.332;2023-09-30T03:43:33;19.50;95.30
17843;DHT22;69286;48.222;16.332;2023-09-30T03:46:02;19.60;95.50
17843;DHT22;69286;48.222;16.332;2023-09-30T03:48:29;19.60;95.80
17843;DHT22;69286;48.222;16.332;2023-09-30T03:50:57;19.60;96.10
17843;DHT22;69286;48.222;16.332;2023-09-30T03:53:24;19.60;96.70
17843;DHT22;69286;48.222;16.332;2023-09-30T03:55:52;19.70;97.00
17843;DHT22;69286;48.222;16.332;2023-09-30T03:58:20;19.70;97.70
17843;DHT22;69286;48.222;16.332;2023-09-30T04:00:47;19.60;98.80
17843;DHT22;69286;48.222;16.332;2023-09-30T04:03:15;19.60;99.90
17843;DHT22;69286;48.222;16.332;2023-09-30T04:05:42;19.60;99.90
17843;DHT22;69286;48.222;16.332;2023-09-30T04:08:09;19.50;99.90
17843;DHT22;69286;48.222;16.332;2023-09-30T04:10:37;19.50;99.90
17843;DHT22;69286;48.222;16.332;2023-09-30T04:13:03;19.50;99.90
17843;DHT22;69286;48.222;16.332;2023-09-30T04:15:32;19.40;99.90
17843;DHT22;69286;48.222;16.332;2023-09-30T04:18:00;19.40;99.90
17843;DHT22;69286;48.222;16.332;2023-09-30T04:20:28;19.40;99.90
17843;DHT22;69286;48.222;16.332;2023-09-30T04:22:55;19.40;99.90
17843;DHT22;69286;48.222;16.332;2023-09-30T04:25:23;19.40;99.90
17843;DHT22;69286;48.222;16.332;2023-09-30T04:27:51;19.40;99.90
17843;DHT22;69286;48.222;16.332;2023-09-30T04:30:18;19.40;99.90
17843;DHT22;69286;48.222;16.332;2023-09-30T04:32:49;19.30;99.90
17843;DHT22;69286;48.222;16.332;2023-09-30T04:35:16;19.30;99.90
17843;DHT22;69286;48.222;16.332;2023-09-30T04:37:44;19.30;99.90
17843;DHT22;69286;48.222;16.332;2023-09-30T04:40:11;19.30;99.90
17843;DHT22;69286;48.222;16.332;2023-09-30T04:42:41;19.30;99.90
17843;DHT22;69286;48.222;16.332;2023-09-30T04:45:10;19.30;99.90
17843;DHT22;69286;48.222;16.332;2023-09-30T04:47:37;19.30;99.90
17843;DHT22;69286;48.222;16.332;2023-09-30T04:50:08;19.30;99.90
17843;DHT22;69286;48.222;16.332;2023-09-30T04:52:35;19.20;99.90
17843;DHT22;69286;48.222;16.332;2023-09-30T04:55:03;19.20;99.90
17843;DHT22;69286;48.222;16.332;2023-09-30T04:57:30;19.20;99.90
17843;DHT22;69286;48.222;16.332;2023-09-30T04:59:57;19.20;99.90
17843;DHT22;69286;48.222;16.332;2023-09-30T05:02:24;19.20;99.90
17843;DHT22;69286;48.222;16.332;2023-09-30T05:04:51;19.20;99.90
17843;DHT22;69286;48.222;16.332;2023-09-30T05:07:21;19.20;99.90
17843;DHT22;69286;48.222;16.332;2023-09-30T05:09:48;19.20;99.90
17843;DHT22;69286;48.222;16.332;2023-09-30T05:12:15;19.20;99.90
17843;DHT22;69286;48.222;16.332;2023-09-30T05:14:42;19.20;99.90
17843;DHT22;69286;48.222;16.332;2023-09-30T05:17:10;19.20;99.90
17843;DHT22;69286;48.222;16.332;2023-09-30T05:19:37;19.20;99.90
17843;DHT22;69286;48.222;16.332;2023-09-30T05:22:04;19.20;99.90
17843;DHT22;69286;48.222;16.332;2023-09-30T05:24:33;19.20;99.90
17843;DHT22;69286;48.222;16.332;2023-09-30T05:27:00;19.20;99.90
17843;DHT22;69286;48.222;16.332;2023-09-30T05:29:28;19.30;99.90
17843;DHT22;69286;48.222;16.332;2023-09-30T05:31:59;19.30;99.90
17843;DHT22;69286;48.222;16.332;2023-09-30T05:34:26;19.30;99.90
17843;DHT22;69286;48.222;16.332;2023-09-30T05:36:53;19.30;99.90
17843;DHT22;69286;48.222;16.332;2023-09-30T05:39:20;19.30;99.90
17843;DHT22;69286;48.222;16.332;2023-09-30T05:41:49;19.30;99.90
17843;DHT22;69286;48.222;16.332;2023-09-30T05:44:16;19.30;99.90
17843;DHT22;69286;48.222;16.332;2023-09-30T05:46:43;19.30;99.90
17843;DHT22;69286;48.222;16.332;2023-09-30T05:49:11;19.30;99.90
17843;DHT22;69286;48.222;16.332;2023-09-30T05:51:39;19.30;99.90
17843;DHT22;69286;48.222;16.332;2023-09-30T05:54:23;19.40;99.90
17843;DHT22;69286;48.222;16.332;2023-09-30T05:56:52;19.40;99.90
17843;DHT22;69286;48.222;16.332;2023-09-30T05:59:22;19.50;99.90
17843;DHT22;69286;48.222;16.332;2023-09-30T06:01:51;19.50;99.90
17843;DHT22;69286;48.222;16.332;2023-09-30T06:04:18;19.60;99.90
17843;DHT22;69286;48.222;16.332;2023-09-30T06:06:45;19.60;99.90
17843;DHT22;69286;48.222;16.332;2023-09-30T06:09:12;19.70;99.90
17843;DHT22;69286;48.222;16.332;2023-09-30T06:11:39;19.80;99.90
17843;DHT22;69286;48.222;16.332;2023-09-30T06:14:09;19.80;99.90
17843;DHT22;69286;48.222;16.332;2023-09-30T06:16:35;19.90;99.90
17843;DHT22;69286;48.222;16.332;2023-09-30T06:19:02;20.00;99.90
17843;DHT22;69286;48.222;16.332;2023-09-30T06:21:29;20.10;99.80
17843;DHT22;69286;48.222;16.332;2023-09-30T06:24:00;20.20;99.50
17843;DHT22;69286;48.222;16.332;2023-09-30T06:26:27;20.60;99.20
17843;DHT22;69286;48.222;16.332;2023-09-30T06:28:55;20.60;98.60
17843;DHT22;69286;48.222;16.332;2023-09-30T06:31:24;20.70;98.20
17843;DHT22;69286;48.222;16.332;2023-09-30T06:33:52;20.70;98.10
17843;DHT22;69286;48.222;16.332;2023-09-30T06:36:23;20.70;97.90
17843;DHT22;69286;48.222;16.332;2023-09-30T06:38:51;20.70;97.80
17843;DHT22;69286;48.222;16.332;2023-09-30T06:41:18;20.70;97.80
17843;DHT22;69286;48.222;16.332;2023-09-30T06:43:45;20.70;97.70
17843;DHT22;69286;48.222;16.332;2023-09-30T06:46:12;20.80;97.50
17843;DHT22;69286;48.222;16.332;2023-09-30T06:48:41;20.80;97.40
17843;DHT22;69286;48.222;16.332;2023-09-30T06:51:12;20.90;97.20
17843;DHT22;69286;48.222;16.332;2023-09-30T06:53:39;20.90;97.00
17843;DHT22;69286;48.222;16.332;2023-09-30T06:56:06;21.00;96.80
17843;DHT22;69286;48.222;16.332;2023-09-30T06:58:33;21.00;96.70
17843;DHT22;69286;48.222;16.332;2023-09-30T07:01:01;21.10;96.50
17843;DHT22;69286;48.222;16.332;2023-09-30T07:03:28;21.20;96.40
17843;DHT22;69286;48.222;16.332;2023-09-30T07:05:57;21.20;96.30
17843;DHT22;69286;48.222;16.332;2023-09-30T07:08:26;21.40;96.10
17843;DHT22;69286;48.222;16.332;2023-09-30T07:10:54;21.60;95.80
17843;DHT22;69286;48.222;16.332;2023-09-30T07:13:22;21.80;95.30
17843;DHT22;69286;48.222;16.332;2023-09-30T07:15:49;22.10;94.90
17843;DHT22;69286;48.222;16.332;2023-09-30T07:18:16;22.60;94.00
17843;DHT22;69286;48.222;16.332;2023-09-30T07:20:44;23.90;92.70
17843;DHT22;69286;48.222;16.332;2023-09-30T07:23:12;25.00;90.60
17843;DHT22;69286;48.222;16.332;2023-09-30T07:25:39;25.20;87.90
17843;DHT22;69286;48.222;16.332;2023-09-30T07:28:06;25.10;87.10
17843;DHT22;69286;48.222;16.332;2023-09-30T07:30:37;25.00;87.00
17843;DHT22;69286;48.222;16.332;2023-09-30T07:33:04;24.90;86.00
17843;DHT22;69286;48.222;16.332;2023-09-30T07:35:32;24.80;86.20
17843;DHT22;69286;48.222;16.332;2023-09-30T07:37:59;24.80;86.70
17843;DHT22;69286;48.222;16.332;2023-09-30T07:40:27;24.60;86.50
17843;DHT22;69286;48.222;16.332;2023-09-30T07:42:56;24.70;86.20
17843;DHT22;69286;48.222;16.332;2023-09-30T07:45:23;24.50;85.90
17843;DHT22;69286;48.222;16.332;2023-09-30T07:47:50;24.70;85.20
17843;DHT22;69286;48.222;16.332;2023-09-30T07:50:18;26.00;84.50
17843;DHT22;69286;48.222;16.332;2023-09-30T07:52:45;28.90;77.00
17843;DHT22;69286;48.222;16.332;2023-09-30T07:55:12;28.70;74.00
17843;DHT22;69286;48.222;16.332;2023-09-30T07:57:42;30.10;69.90
17843;DHT22;69286;48.222;16.332;2023-09-30T08:00:11;29.90;69.40
17843;DHT22;69286;48.222;16.332;2023-09-30T08:02:41;31.70;66.50
17843;DHT22;69286;48.222;16.332;2023-09-30T08:05:09;33.00;62.70
17843;DHT22;69286;48.222;16.332;2023-09-30T08:07:37;34.60;59.30
17843;DHT22;69286;48.222;16.332;2023-09-30T08:10:06;35.30;56.70
17843;DHT22;69286;48.222;16.332;2023-09-30T08:12:38;33.20;56.90
17843;DHT22;69286;48.222;16.332;2023-09-30T08:15:09;31.60;59.80
17843;DHT22;69286;48.222;16.332;2023-09-30T08:17:38;30.10;62.30
17843;DHT22;69286;48.222;16.332;2023-09-30T08:20:07;28.70;65.40
17843;DHT22;69286;48.222;16.332;2023-09-30T08:22:35;28.10;68.10
17843;DHT22;69286;48.222;16.332;2023-09-30T08:25:04;27.80;69.60
17843;DHT22;69286;48.222;16.332;2023-09-30T08:27:33;28.00;68.90
17843;DHT22;69286;48.222;16.332;2023-09-30T08:30:00;29.90;65.60
17843;DHT22;69286;48.222;16.332;2023-09-30T08:32:35;29.60;64.70
17843;DHT22;69286;48.222;16.332;2023-09-30T08:35:03;29.30;64.80
17843;DHT22;69286;48.222;16.332;2023-09-30T08:37:30;29.90;64.40
17843;DHT22;69286;48.222;16.332;2023-09-30T08:39:58;31.00;62.80
17843;DHT22;69286;48.222;16.332;2023-09-30T08:42:27;31.40;61.50
17843;DHT22;69286;48.222;16.332;2023-09-30T08:44:58;30.50;61.30
17843;DHT22;69286;48.222;16.332;2023-09-30T08:47:26;29.10;64.10
17843;DHT22;69286;48.222;16.332;2023-09-30T08:49:58;28.60;66.00
17843;DHT22;69286;48.222;16.332;2023-09-30T08:52:32;28.40;67.00
17843;DHT22;69286;48.222;16.332;2023-09-30T08:54:59;28.40;66.70
17843;DHT22;69286;48.222;16.332;2023-09-30T08:57:26;28.30;67.30
17843;DHT22;69286;48.222;16.332;2023-09-30T08:59:55;28.30;67.20
17843;DHT22;69286;48.222;16.332;2023-09-30T09:02:22;28.10;67.20
17843;DHT22;69286;48.222;16.332;2023-09-30T09:04:49;27.80;68.10
17843;DHT22;69286;48.222;16.332;2023-09-30T09:07:18;27.60;69.00
17843;DHT22;69286;48.222;16.332;2023-09-30T09:10:02;27.10;69.70
17843;DHT22;69286;48.222;16.332;2023-09-30T09:12:29;26.80;71.40
17843;DHT22;69286;48.222;16.332;2023-09-30T09:14:57;26.50;71.60
17843;DHT22;69286;48.222;16.332;2023-09-30T09:17:24;26.50;72.50
17843;DHT22;69286;48.222;16.332;2023-09-30T09:19:59;26.70;71.60
17843;DHT22;69286;48.222;16.332;2023-09-30T09:22:39;26.70;71.80
17843;DHT22;69286;48.222;16.332;2023-09-30T09:25:07;26.50;72.30
17843;DHT22;69286;48.222;16.332;2023-09-30T09:27:34;26.50;72.40
17843;DHT22;69286;48.222;16.332;2023-09-30T09:30:15;26.40;72.90
17843;DHT22;69286;48.222;16.332;2023-09-30T09:33:00;26.10;72.90
17843;DHT22;69286;48.222;16.332;2023-09-30T09:35:28;26.00;73.20
17843;DHT22;69286;48.222;16.332;2023-09-30T09:37:59;26.00;73.10
17843;DHT22;69286;48.222;16.332;2023-09-30T09:40:27;25.80;73.80
17843;DHT22;69286;48.222;16.332;2023-09-30T09:42:55;25.60;74.20
17843;DHT22;69286;48.222;16.332;2023-09-30T09:45:22;25.30;75.10
17843;DHT22;69286;48.222;16.332;2023-09-30T09:47:50;25.20;75.90
17843;DHT22;69286;48.222;16.332;2023-09-30T09:50:19;25.20;76.10
17843;DHT22;69286;48.222;16.332;2023-09-30T09:52:48;25.20;76.30
17843;DHT22;69286;48.222;16.332;2023-09-30T09:55:18;25.10;76.50
17843;DHT22;69286;48.222;16.332;2023-09-30T09:57:46;25.10;76.80
17843;DHT22;69286;48.222;16.332;2023-09-30T10:00:16;25.10;76.40
17843;DHT22;69286;48.222;16.332;2023-09-30T10:02:45;25.20;76.50
17843;DHT22;69286;48.222;16.332;2023-09-30T10:05:13;25.00;76.60
17843;DHT22;69286;48.222;16.332;2023-09-30T10:07:44;24.90;77.30
17843;DHT22;69286;48.222;16.332;2023-09-30T10:10:17;24.80;77.60
17843;DHT22;69286;48.222;16.332;2023-09-30T10:12:46;24.70;77.80
17843;DHT22;69286;48.222;16.332;2023-09-30T10:15:36;24.70;78.40
17843;DHT22;69286;48.222;16.332;2023-09-30T10:18:06;24.40;79.30
17843;DHT22;69286;48.222;16.332;2023-09-30T10:20:34;24.30;80.00
17843;DHT22;69286;48.222;16.332;2023-09-30T10:23:21;24.30;80.40
17843;DHT22;69286;48.222;16.332;2023-09-30T10:25:51;24.30;80.70
17843;DHT22;69286;48.222;16.332;2023-09-30T10:28:38;24.20;81.00
17843;DHT22;69286;48.222;16.332;2023-09-30T10:31:13;24.30;80.80
17843;DHT22;69286;48.222;16.332;2023-09-30T10:34:20;24.50;80.90
17843;DHT22;69286;48.222;16.332;2023-09-30T10:36:48;24.60;80.50
17843;DHT22;69286;48.222;16.332;2023-09-30T10:42:48;24.50;80.70
17843;DHT22;69286;48.222;16.332;2023-09-30T10:45:45;24.40;80.60
17843;DHT22;69286;48.222;16.332;2023-09-30T10:48:37;24.30;80.90
17843;DHT22;69286;48.222;16.332;2023-09-30T10:51:13;24.30;80.80
17843;DHT22;69286;48.222;16.332;2023-09-30T10:53:45;24.30;81.10
17843;DHT22;69286;48.222;16.332;2023-09-30T10:56:13;24.30;80.90
17843;DHT22;69286;48.222;16.332;2023-09-30T10:58:42;24.60;80.60
17843;DHT22;69286;48.222;16.332;2023-09-30T11:01:11;24.70;79.60
17843;DHT22;69286;48.222;16.332;2023-09-30T11:03:39;24.90;79.80
17843;DHT22;69286;48.222;16.332;2023-09-30T11:06:07;25.10;79.30
17843;DHT22;69286;48.222;16.332;2023-09-30T11:08:41;25.40;78.80
17843;DHT22;69286;48.222;16.332;2023-09-30T11:11:11;25.60;78.50
17843;DHT22;69286;48.222;16.332;2023-09-30T11:13:39;25.70;77.00
17843;DHT22;69286;48.222;16.332;2023-09-30T11:16:07;25.70;76.80
17843;DHT22;69286;48.222;16.332;2023-09-30T11:18:35;25.80;76.80
17843;DHT22;69286;48.222;16.332;2023-09-30T11:21:08;25.80;76.10
17843;DHT22;69286;48.222;16.332;2023-09-30T11:23:36;25.80;76.50
17843;DHT22;69286;48.222;16.332;2023-09-30T11:26:04;25.90;76.30
17843;DHT22;69286;48.222;16.332;2023-09-30T11:28:39;25.90;76.20
17843;DHT22;69286;48.222;16.332;2023-09-30T11:31:09;25.90;76.30
17843;DHT22;69286;48.222;16.332;2023-09-30T11:33:52;25.80;76.90
17843;DHT22;69286;48.222;16.332;2023-09-30T11:36:19;25.70;77.50
17843;DHT22;69286;48.222;16.332;2023-09-30T11:38:48;25.60;76.70
17843;DHT22;69286;48.222;16.332;2023-09-30T11:41:18;25.40;77.80
17843;DHT22;69286;48.222;16.332;2023-09-30T11:43:59;25.20;78.10
17843;DHT22;69286;48.222;16.332;2023-09-30T11:46:27;25.00;78.70
17843;DHT22;69286;48.222;16.332;2023-09-30T11:49:00;24.80;79.70
17843;DHT22;69286;48.222;16.332;2023-09-30T11:51:28;24.60;80.10
17843;DHT22;69286;48.222;16.332;2023-09-30T11:53:57;24.50;81.10
17843;DHT22;69286;48.222;16.332;2023-09-30T11:56:24;24.30;81.20
17843;DHT22;69286;48.222;16.332;2023-09-30T11:58:55;24.20;82.10
17843;DHT22;69286;48.222;16.332;2023-09-30T12:01:23;24.20;82.30
17843;DHT22;69286;48.222;16.332;2023-09-30T12:03:51;24.10;82.70
17843;DHT22;69286;48.222;16.332;2023-09-30T12:06:22;24.10;82.90
17843;DHT22;69286;48.222;16.332;2023-09-30T12:08:50;24.20;82.80
17843;DHT22;69286;48.222;16.332;2023-09-30T12:11:18;24.30;82.90
17843;DHT22;69286;48.222;16.332;2023-09-30T12:13:45;24.30;82.10
17843;DHT22;69286;48.222;16.332;2023-09-30T12:16:14;24.40;81.80
17843;DHT22;69286;48.222;16.332;2023-09-30T12:18:42;24.50;81.90
17843;DHT22;69286;48.222;16.332;2023-09-30T12:21:10;24.50;81.10
17843;DHT22;69286;48.222;16.332;2023-09-30T12:23:40;24.50;81.10
17843;DHT22;69286;48.222;16.332;2023-09-30T12:26:08;24.50;80.70
17843;DHT22;69286;48.222;16.332;2023-09-30T12:28:37;24.50;81.00
17843;DHT22;69286;48.222;16.332;2023-09-30T12:31:06;24.40;81.70
17843;DHT22;69286;48.222;16.332;2023-09-30T12:33:33;24.50;79.80
17843;DHT22;69286;48.222;16.332;2023-09-30T12:36:00;24.40;79.80
17843;DHT22;69286;48.222;16.332;2023-09-30T12:38:27;24.40;79.90
17843;DHT22;69286;48.222;16.332;2023-09-30T12:40:56;24.30;79.30
17843;DHT22;69286;48.222;16.332;2023-09-30T12:43:23;24.40;79.60
17843;DHT22;69286;48.222;16.332;2023-09-30T12:45:50;24.40;79.40
17843;DHT22;69286;48.222;16.332;2023-09-30T12:48:17;24.40;78.90
17843;DHT22;69286;48.222;16.332;2023-09-30T12:50:44;24.40;79.00
17843;DHT22;69286;48.222;16.332;2023-09-30T12:53:11;24.40;79.00
17843;DHT22;69286;48.222;16.332;2023-09-30T12:55:38;24.40;79.10
17843;DHT22;69286;48.222;16.332;2023-09-30T12:58:07;24.50;79.30
17843;DHT22;69286;48.222;16.332;2023-09-30T13:00:34;24.50;79.20
17843;DHT22;69286;48.222;16.332;2023-09-30T13:03:03;24.50;79.20
17843;DHT22;69286;48.222;16.332;2023-09-30T13:05:30;24.50;79.00
17843;DHT22;69286;48.222;16.332;2023-09-30T13:07:57;24.60;78.90
17843;DHT22;69286;48.222;16.332;2023-09-30T13:10:24;24.60;78.10
17843;DHT22;69286;48.222;16.332;2023-09-30T13:12:52;24.60;77.60
17843;DHT22;69286;48.222;16.332;2023-09-30T13:15:21;24.70;78.00
17843;DHT22;69286;48.222;16.332;2023-09-30T13:17:50;24.60;78.00
17843;DHT22;69286;48.222;16.332;2023-09-30T13:20:17;24.60;78.20
17843;DHT22;69286;48.222;16.332;2023-09-30T13:22:44;24.60;78.30
17843;DHT22;69286;48.222;16.332;2023-09-30T13:25:13;24.70;77.90
17843;DHT22;69286;48.222;16.332;2023-09-30T13:27:41;24.60;78.20
17843;DHT22;69286;48.222;16.332;2023-09-30T13:30:09;24.70;78.10
17843;DHT22;69286;48.222;16.332;2023-09-30T13:32:38;24.70;78.40
17843;DHT22;69286;48.222;16.332;2023-09-30T13:35:06;24.70;78.30
17843;DHT22;69286;48.222;16.332;2023-09-30T13:37:33;24.70;78.60
17843;DHT22;69286;48.222;16.332;2023-09-30T13:40:03;24.60;78.90
17843;DHT22;69286;48.222;16.332;2023-09-30T13:42:33;24.60;78.50
17843;DHT22;69286;48.222;16.332;2023-09-30T13:45:01;24.50;79.00
17843;DHT22;69286;48.222;16.332;2023-09-30T13:47:29;24.50;79.10
17843;DHT22;69286;48.222;16.332;2023-09-30T13:49:57;24.50;79.30
17843;DHT22;69286;48.222;16.332;2023-09-30T13:52:24;24.50;79.40
17843;DHT22;69286;48.222;16.332;2023-09-30T13:54:51;24.60;79.60
17843;DHT22;69286;48.222;16.332;2023-09-30T13:57:18;24.60;79.60
17843;DHT22;69286;48.222;16.332;2023-09-30T13:59:45;24.60;79.70
17843;DHT22;69286;48.222;16.332;2023-09-30T14:02:12;24.60;79.90
17843;DHT22;69286;48.222;16.332;2023-09-30T14:04:39;24.50;80.30
17843;DHT22;69286;48.222;16.332;2023-09-30T14:07:08;24.50;80.30
17843;DHT22;69286;48.222;16.332;2023-09-30T14:09:35;24.40;80.40
17843;DHT22;69286;48.222;16.332;2023-09-30T14:12:02;24.30;80.60
17843;DHT22;69286;48.222;16.332;2023-09-30T14:14:31;24.30;80.90
17843;DHT22;69286;48.222;16.332;2023-09-30T14:16:59;24.30;81.20
17843;DHT22;69286;48.222;16.332;2023-09-30T14:19:32;24.20;81.20
17843;DHT22;69286;48.222;16.332;2023-09-30T14:21:59;24.20;81.50
17843;DHT22;69286;48.222;16.332;2023-09-30T14:24:28;24.20;81.40
17843;DHT22;69286;48.222;16.332;2023-09-30T14:26:55;24.20;81.10
17843;DHT22;69286;48.222;16.332;2023-09-30T14:29:22;24.10;81.20
17843;DHT22;69286;48.222;16.332;2023-09-30T14:31:50;24.10;81.30
17843;DHT22;69286;48.222;16.332;2023-09-30T14:34:17;24.00;81.40
17843;DHT22;69286;48.222;16.332;2023-09-30T14:36:44;24.00;81.50
17843;DHT22;69286;48.222;16.332;2023-09-30T14:39:11;24.00;81.50
17843;DHT22;69286;48.222;16.332;2023-09-30T14:41:39;23.90;81.90
17843;DHT22;69286;48.222;16.332;2023-09-30T14:44:06;23.90;81.90
17843;DHT22;69286;48.222;16.332;2023-09-30T14:46:34;23.90;81.70
17843;DHT22;69286;48.222;16.332;2023-09-30T14:49:01;23.90;81.80
17843;DHT22;69286;48.222;16.332;2023-09-30T14:51:28;23.90;81.70
17843;DHT22;69286;48.222;16.332;2023-09-30T14:53:55;23.90;81.50
17843;DHT22;69286;48.222;16.332;2023-09-30T14:56:22;23.90;81.40
17843;DHT22;69286;48.222;16.332;2023-09-30T14:58:50;23.90;81.40
17843;DHT22;69286;48.222;16.332;2023-09-30T15:01:17;23.80;81.20
17843;DHT22;69286;48.222;16.332;2023-09-30T15:03:45;23.80;81.60
17843;DHT22;69286;48.222;16.332;2023-09-30T15:06:12;23.70;80.60
17843;DHT22;69286;48.222;16.332;2023-09-30T15:08:39;23.70;81.00
17843;DHT22;69286;48.222;16.332;2023-09-30T15:11:12;23.60;81.60
17843;DHT22;69286;48.222;16.332;2023-09-30T15:13:40;23.50;81.00
17843;DHT22;69286;48.222;16.332;2023-09-30T15:16:16;23.50;81.60
17843;DHT22;69286;48.222;16.332;2023-09-30T15:18:44;23.40;81.10
17843;DHT22;69286;48.222;16.332;2023-09-30T15:21:13;23.40;81.00
17843;DHT22;69286;48.222;16.332;2023-09-30T15:23:40;23.40;81.40
17843;DHT22;69286;48.222;16.332;2023-09-30T15:26:08;23.40;81.40
17843;DHT22;69286;48.222;16.332;2023-09-30T15:28:36;23.30;81.30